sensor_id;sensor_type;location;lat;lon;timestamp;P1;durP1;ratioP1;P2;durP2;ratioP2
55065;SDS011;40964;42.114;24.220;2023-12-22T00:01:32;4.80;;;2.08;;
55065;SDS011;40964;42.114;24.220;2023-12-22T00:03:59;4.15;;;1.92;;
55065;SDS011;40964;42.114;24.220;2023-12-22T00:06:24;4.93;;;2.63;;
55065;SDS011;40964;42.114;24.220;2023-12-22T00:08:50;3.58;;;2.10;;
55065;SDS011;40964;42.114;24.220;2023-12-22T00:11:15;4.47;;;2.08;;
55065;SDS011;40964;42.114;24.220;2023-12-22T00:13:41;10.73;;;4.30;;
55065;SDS011;40964;42.114;24.220;2023-12-22T00:16:06;6.10;;;2.95;;
55065;SDS011;40964;42.114;24.220;2023-12-22T00:18:32;6.50;;;2.40;;
55065;SDS011;40964;42.114;24.220;2023-12-22T00:20:57;12.93;;;4.03;;
55065;SDS011;40964;42.114;24.220;2023-12-22T00:23:23;14.18;;;5.50;;
55065;SDS011;40964;42.114;24.220;2023-12-22T00:25:48;6.78;;;3.55;;
55065;SDS011;40964;42.114;24.220;2023-12-22T00:28:14;10.18;;;3.80;;
55065;SDS011;40964;42.114;24.220;2023-12-22T00:30:39;7.82;;;3.28;;
55065;SDS011;40964;42.114;24.220;2023-12-22T00:33:04;6.05;;;2.85;;
55065;SDS011;40964;42.114;24.220;2023-12-22T00:35:30;4.35;;;2.63;;
55065;SDS011;40964;42.114;24.220;2023-12-22T00:37:56;3.40;;;2.35;;
55065;SDS011;40964;42.114;24.220;2023-12-22T00:40:21;4.47;;;2.78;;
55065;SDS011;40964;42.114;24.220;2023-12-22T00:42:46;5.25;;;3.10;;
55065;SDS011;40964;42.114;24.220;2023-12-22T00:45:12;6.28;;;2.38;;
55065;SDS011;40964;42.114;24.220;2023-12-22T00:47:37;6.03;;;2.58;;
55065;SDS011;40964;42.114;24.220;2023-12-22T00:50:03;4.75;;;2.72;;
55065;SDS011;40964;42.114;24.220;2023-12-22T00:52:29;4.75;;;1.90;;
55065;SDS011;40964;42.114;24.220;2023-12-22T00:54:55;4.43;;;2.35;;
55065;SDS011;40964;42.114;24.220;2023-12-22T00:57:21;5.88;;;2.80;;
55065;SDS011;40964;42.114;24.220;2023-12-22T00:59:46;8.57;;;3.58;;
55065;SDS011;40964;42.114;24.220;2023-12-22T01:02:15;6.93;;;3.38;;
55065;SDS011;40964;42.114;24.220;2023-12-22T01:04:42;10.25;;;3.55;;
55065;SDS011;40964;42.114;24.220;2023-12-22T01:07:08;5.57;;;2.92;;
55065;SDS011;40964;42.114;24.220;2023-12-22T01:09:34;4.90;;;2.55;;
55065;SDS011;40964;42.114;24.220;2023-12-22T01:12:00;4.53;;;2.63;;
55065;SDS011;40964;42.114;24.220;2023-12-22T01:14:28;4.95;;;2.50;;
55065;SDS011;40964;42.114;24.220;2023-12-22T01:16:53;4.65;;;2.40;;
55065;SDS011;40964;42.114;24.220;2023-12-22T01:19:19;5.43;;;2.63;;
55065;SDS011;40964;42.114;24.220;2023-12-22T01:21:44;4.20;;;2.58;;
55065;SDS011;40964;42.114;24.220;2023-12-22T01:24:10;5.88;;;2.80;;
55065;SDS011;40964;42.114;24.220;2023-12-22T01:26:35;3.53;;;2.30;;
55065;SDS011;40964;42.114;24.220;2023-12-22T01:29:01;4.85;;;2.72;;
55065;SDS011;40964;42.114;24.220;2023-12-22T01:31:26;16.40;;;5.60;;
55065;SDS011;40964;42.114;24.220;2023-12-22T01:33:52;9.13;;;3.92;;
55065;SDS011;40964;42.114;24.220;2023-12-22T01:36:17;7.68;;;3.65;;
55065;SDS011;40964;42.114;24.220;2023-12-22T01:38:43;4.82;;;2.35;;
55065;SDS011;40964;42.114;24.220;2023-12-22T01:41:08;7.45;;;3.17;;
55065;SDS011;40964;42.114;24.220;2023-12-22T01:43:34;4.65;;;2.60;;
55065;SDS011;40964;42.114;24.220;2023-12-22T01:45:59;5.00;;;2.80;;
55065;SDS011;40964;42.114;24.220;2023-12-22T01:48:26;4.00;;;2.47;;
55065;SDS011;40964;42.114;24.220;2023-12-22T01:50:52;4.30;;;2.83;;
55065;SDS011;40964;42.114;24.220;2023-12-22T01:53:19;3.63;;;2.00;;
55065;SDS011;40964;42.114;24.220;2023-12-22T01:55:46;4.28;;;2.35;;
55065;SDS011;40964;42.114;24.220;2023-12-22T01:58:15;5.68;;;2.58;;
55065;SDS011;40964;42.114;24.220;2023-12-22T02:00:42;4.90;;;2.70;;
55065;SDS011;40964;42.114;24.220;2023-12-22T02:03:08;5.40;;;2.70;;
55065;SDS011;40964;42.114;24.220;2023-12-22T02:05:34;4.95;;;2.45;;
55065;SDS011;40964;42.114;24.220;2023-12-22T02:07:59;6.22;;;2.72;;
55065;SDS011;40964;42.114;24.220;2023-12-22T02:10:25;4.75;;;2.72;;
55065;SDS011;40964;42.114;24.220;2023-12-22T02:12:50;3.53;;;1.80;;
55065;SDS011;40964;42.114;24.220;2023-12-22T02:15:16;3.70;;;2.10;;
55065;SDS011;40964;42.114;24.220;2023-12-22T02:17:48;3.65;;;1.90;;
55065;SDS011;40964;42.114;24.220;2023-12-22T02:20:24;2.45;;;1.77;;
55065;SDS011;40964;42.114;24.220;2023-12-22T02:22:53;5.13;;;2.70;;
55065;SDS011;40964;42.114;24.220;2023-12-22T02:25:19;3.72;;;2.30;;
55065;SDS011;40964;42.114;24.220;2023-12-22T02:27:48;3.50;;;2.47;;
55065;SDS011;40964;42.114;24.220;2023-12-22T02:30:19;4.35;;;2.22;;
55065;SDS011;40964;42.114;24.220;2023-12-22T02:32:58;3.95;;;2.20;;
55065;SDS011;40964;42.114;24.220;2023-12-22T02:35:26;5.68;;;2.03;;
55065;SDS011;40964;42.114;24.220;2023-12-22T02:37:54;4.15;;;2.67;;
55065;SDS011;40964;42.114;24.220;2023-12-22T02:40:22;7.50;;;2.63;;
55065;SDS011;40964;42.114;24.220;2023-12-22T02:42:50;4.80;;;2.40;;
55065;SDS011;40964;42.114;24.220;2023-12-22T02:45:18;7.13;;;3.38;;
55065;SDS011;40964;42.114;24.220;2023-12-22T02:47:44;7.03;;;3.22;;
55065;SDS011;40964;42.114;24.220;2023-12-22T02:50:10;6.78;;;2.92;;
55065;SDS011;40964;42.114;24.220;2023-12-22T02:52:38;5.85;;;2.88;;
55065;SDS011;40964;42.114;24.220;2023-12-22T02:55:04;6.38;;;3.30;;
55065;SDS011;40964;42.114;24.220;2023-12-22T02:57:29;4.68;;;2.88;;
55065;SDS011;40964;42.114;24.220;2023-12-22T02:59:55;5.43;;;3.28;;
55065;SDS011;40964;42.114;24.220;2023-12-22T03:02:21;6.72;;;3.10;;
55065;SDS011;40964;42.114;24.220;2023-12-22T03:04:46;7.25;;;3.78;;
55065;SDS011;40964;42.114;24.220;2023-12-22T03:07:12;8.27;;;3.67;;
55065;SDS011;40964;42.114;24.220;2023-12-22T03:09:38;5.47;;;2.92;;
55065;SDS011;40964;42.114;24.220;2023-12-22T03:12:05;8.90;;;3.17;;
55065;SDS011;40964;42.114;24.220;2023-12-22T03:14:34;4.88;;;2.90;;
55065;SDS011;40964;42.114;24.220;2023-12-22T03:17:03;6.53;;;3.30;;
55065;SDS011;40964;42.114;24.220;2023-12-22T03:19:30;5.05;;;3.03;;
55065;SDS011;40964;42.114;24.220;2023-12-22T03:21:56;5.70;;;3.25;;
55065;SDS011;40964;42.114;24.220;2023-12-22T03:24:25;5.47;;;2.85;;
55065;SDS011;40964;42.114;24.220;2023-12-22T03:26:51;5.47;;;2.85;;
55065;SDS011;40964;42.114;24.220;2023-12-22T03:29:17;7.22;;;3.35;;
55065;SDS011;40964;42.114;24.220;2023-12-22T03:31:43;4.25;;;2.90;;
55065;SDS011;40964;42.114;24.220;2023-12-22T03:34:09;5.15;;;3.00;;
55065;SDS011;40964;42.114;24.220;2023-12-22T03:36:34;4.60;;;2.60;;
55065;SDS011;40964;42.114;24.220;2023-12-22T03:39:00;3.45;;;2.08;;
55065;SDS011;40964;42.114;24.220;2023-12-22T03:41:26;4.22;;;2.38;;
55065;SDS011;40964;42.114;24.220;2023-12-22T03:43:52;5.90;;;2.95;;
55065;SDS011;40964;42.114;24.220;2023-12-22T03:46:17;4.07;;;2.70;;
55065;SDS011;40964;42.114;24.220;2023-12-22T03:48:43;13.30;;;4.43;;
55065;SDS011;40964;42.114;24.220;2023-12-22T03:51:09;5.65;;;2.90;;
55065;SDS011;40964;42.114;24.220;2023-12-22T03:53:36;16.73;;;3.45;;
55065;SDS011;40964;42.114;24.220;2023-12-22T03:56:02;56.90;;;11.73;;
55065;SDS011;40964;42.114;24.220;2023-12-22T03:58:28;93.45;;;19.85;;
55065;SDS011;40964;42.114;24.220;2023-12-22T04:00:55;60.55;;;16.20;;
55065;SDS011;40964;42.114;24.220;2023-12-22T04:03:20;44.63;;;12.93;;
55065;SDS011;40964;42.114;24.220;2023-12-22T04:05:45;6.50;;;3.40;;
55065;SDS011;40964;42.114;24.220;2023-12-22T04:08:11;8.20;;;2.83;;
55065;SDS011;40964;42.114;24.220;2023-12-22T04:10:36;5.97;;;3.28;;
55065;SDS011;40964;42.114;24.220;2023-12-22T04:13:02;5.43;;;3.08;;
55065;SDS011;40964;42.114;24.220;2023-12-22T04:15:27;7.10;;;3.40;;
55065;SDS011;40964;42.114;24.220;2023-12-22T04:17:53;8.13;;;4.25;;
55065;SDS011;40964;42.114;24.220;2023-12-22T04:20:18;10.55;;;4.60;;
55065;SDS011;40964;42.114;24.220;2023-12-22T04:22:44;9.65;;;4.60;;
55065;SDS011;40964;42.114;24.220;2023-12-22T04:25:09;12.23;;;4.53;;
55065;SDS011;40964;42.114;24.220;2023-12-22T04:27:35;7.75;;;4.13;;
55065;SDS011;40964;42.114;24.220;2023-12-22T04:30:00;11.68;;;4.85;;
55065;SDS011;40964;42.114;24.220;2023-12-22T04:32:26;10.88;;;4.70;;
55065;SDS011;40964;42.114;24.220;2023-12-22T04:34:52;11.07;;;4.93;;
55065;SDS011;40964;42.114;24.220;2023-12-22T04:37:17;9.70;;;5.45;;
55065;SDS011;40964;42.114;24.220;2023-12-22T04:39:43;9.98;;;4.43;;
55065;SDS011;40964;42.114;24.220;2023-12-22T04:42:08;7.65;;;3.95;;
55065;SDS011;40964;42.114;24.220;2023-12-22T04:44:33;6.90;;;3.67;;
55065;SDS011;40964;42.114;24.220;2023-12-22T04:46:59;6.75;;;4.00;;
55065;SDS011;40964;42.114;24.220;2023-12-22T04:49:25;6.97;;;3.15;;
55065;SDS011;40964;42.114;24.220;2023-12-22T04:51:50;5.43;;;2.97;;
55065;SDS011;40964;42.114;24.220;2023-12-22T04:54:16;4.35;;;2.70;;
55065;SDS011;40964;42.114;24.220;2023-12-22T04:56:41;6.03;;;2.92;;
55065;SDS011;40964;42.114;24.220;2023-12-22T04:59:06;2.88;;;2.35;;
55065;SDS011;40964;42.114;24.220;2023-12-22T05:01:33;4.78;;;2.70;;
55065;SDS011;40964;42.114;24.220;2023-12-22T05:03:58;3.28;;;2.25;;
55065;SDS011;40964;42.114;24.220;2023-12-22T05:06:23;3.17;;;1.95;;
55065;SDS011;40964;42.114;24.220;2023-12-22T05:08:49;5.88;;;2.50;;
55065;SDS011;40964;42.114;24.220;2023-12-22T05:11:14;8.35;;;4.38;;
55065;SDS011;40964;42.114;24.220;2023-12-22T05:13:40;12.05;;;5.22;;
55065;SDS011;40964;42.114;24.220;2023-12-22T05:16:07;12.45;;;5.32;;
55065;SDS011;40964;42.114;24.220;2023-12-22T05:18:32;6.05;;;3.45;;
55065;SDS011;40964;42.114;24.220;2023-12-22T05:20:58;4.93;;;2.63;;
55065;SDS011;40964;42.114;24.220;2023-12-22T05:23:23;8.32;;;2.95;;
55065;SDS011;40964;42.114;24.220;2023-12-22T05:25:49;30.23;;;14.23;;
55065;SDS011;40964;42.114;24.220;2023-12-22T05:28:14;6.88;;;3.80;;
55065;SDS011;40964;42.114;24.220;2023-12-22T05:30:39;6.78;;;2.75;;
55065;SDS011;40964;42.114;24.220;2023-12-22T05:33:05;6.00;;;3.28;;
55065;SDS011;40964;42.114;24.220;2023-12-22T05:35:30;5.78;;;2.45;;
55065;SDS011;40964;42.114;24.220;2023-12-22T05:37:56;12.45;;;4.78;;
55065;SDS011;40964;42.114;24.220;2023-12-22T05:40:21;10.00;;;4.40;;
55065;SDS011;40964;42.114;24.220;2023-12-22T05:45:37;6.43;;;3.97;;
55065;SDS011;40964;42.114;24.220;2023-12-22T05:48:03;9.40;;;5.03;;
55065;SDS011;40964;42.114;24.220;2023-12-22T05:50:29;8.35;;;4.47;;
55065;SDS011;40964;42.114;24.220;2023-12-22T05:52:54;12.93;;;4.28;;
55065;SDS011;40964;42.114;24.220;2023-12-22T05:55:20;12.45;;;5.38;;
55065;SDS011;40964;42.114;24.220;2023-12-22T05:57:45;46.58;;;16.23;;
55065;SDS011;40964;42.114;24.220;2023-12-22T06:00:11;61.65;;;22.73;;
55065;SDS011;40964;42.114;24.220;2023-12-22T06:02:37;73.45;;;29.80;;
55065;SDS011;40964;42.114;24.220;2023-12-22T06:05:03;38.05;;;14.88;;
55065;SDS011;40964;42.114;24.220;2023-12-22T06:07:29;17.05;;;8.20;;
55065;SDS011;40964;42.114;24.220;2023-12-22T06:09:54;14.73;;;7.15;;
55065;SDS011;40964;42.114;24.220;2023-12-22T06:12:20;14.98;;;7.05;;
55065;SDS011;40964;42.114;24.220;2023-12-22T06:14:45;20.95;;;8.10;;
55065;SDS011;40964;42.114;24.220;2023-12-22T06:17:10;33.72;;;13.02;;
55065;SDS011;40964;42.114;24.220;2023-12-22T06:19:36;47.20;;;16.67;;
55065;SDS011;40964;42.114;24.220;2023-12-22T06:22:01;21.75;;;9.02;;
55065;SDS011;40964;42.114;24.220;2023-12-22T06:24:27;24.65;;;9.63;;
55065;SDS011;40964;42.114;24.220;2023-12-22T06:26:53;17.45;;;8.48;;
55065;SDS011;40964;42.114;24.220;2023-12-22T06:29:18;7.60;;;4.82;;
55065;SDS011;40964;42.114;24.220;2023-12-22T06:31:44;8.95;;;4.75;;
55065;SDS011;40964;42.114;24.220;2023-12-22T06:34:09;7.85;;;3.92;;
55065;SDS011;40964;42.114;24.220;2023-12-22T06:36:35;8.95;;;4.80;;
55065;SDS011;40964;42.114;24.220;2023-12-22T06:39:00;14.35;;;7.32;;
55065;SDS011;40964;42.114;24.220;2023-12-22T06:41:26;11.52;;;5.28;;
55065;SDS011;40964;42.114;24.220;2023-12-22T06:43:54;11.23;;;5.53;;
55065;SDS011;40964;42.114;24.220;2023-12-22T06:46:20;11.02;;;5.50;;
55065;SDS011;40964;42.114;24.220;2023-12-22T06:48:48;13.10;;;6.13;;
55065;SDS011;40964;42.114;24.220;2023-12-22T06:51:17;11.27;;;4.75;;
55065;SDS011;40964;42.114;24.220;2023-12-22T06:53:49;12.88;;;5.28;;
55065;SDS011;40964;42.114;24.220;2023-12-22T06:56:25;14.43;;;5.00;;
55065;SDS011;40964;42.114;24.220;2023-12-22T06:58:55;19.52;;;4.25;;
55065;SDS011;40964;42.114;24.220;2023-12-22T07:01:27;8.45;;;4.45;;
55065;SDS011;40964;42.114;24.220;2023-12-22T07:03:54;12.23;;;4.57;;
55065;SDS011;40964;42.114;24.220;2023-12-22T07:06:20;9.43;;;4.72;;
55065;SDS011;40964;42.114;24.220;2023-12-22T07:08:46;13.70;;;5.85;;
55065;SDS011;40964;42.114;24.220;2023-12-22T07:11:42;20.27;;;6.78;;
55065;SDS011;40964;42.114;24.220;2023-12-22T07:14:26;17.35;;;7.72;;
55065;SDS011;40964;42.114;24.220;2023-12-22T07:16:51;22.13;;;9.13;;
55065;SDS011;40964;42.114;24.220;2023-12-22T07:19:17;23.05;;;9.80;;
55065;SDS011;40964;42.114;24.220;2023-12-22T07:21:42;36.53;;;16.83;;
55065;SDS011;40964;42.114;24.220;2023-12-22T07:24:08;23.92;;;10.98;;
55065;SDS011;40964;42.114;24.220;2023-12-22T07:26:33;31.08;;;13.40;;
55065;SDS011;40964;42.114;24.220;2023-12-22T07:28:59;31.67;;;14.90;;
55065;SDS011;40964;42.114;24.220;2023-12-22T07:31:24;18.20;;;9.48;;
55065;SDS011;40964;42.114;24.220;2023-12-22T07:33:50;20.85;;;9.50;;
55065;SDS011;40964;42.114;24.220;2023-12-22T07:36:16;23.25;;;10.15;;
55065;SDS011;40964;42.114;24.220;2023-12-22T07:38:43;18.05;;;9.07;;
55065;SDS011;40964;42.114;24.220;2023-12-22T07:41:09;16.63;;;9.68;;
55065;SDS011;40964;42.114;24.220;2023-12-22T07:43:34;18.20;;;7.97;;
55065;SDS011;40964;42.114;24.220;2023-12-22T07:46:00;20.10;;;9.02;;
55065;SDS011;40964;42.114;24.220;2023-12-22T07:48:25;22.08;;;10.77;;
55065;SDS011;40964;42.114;24.220;2023-12-22T07:50:51;27.63;;;14.93;;
55065;SDS011;40964;42.114;24.220;2023-12-22T07:53:16;38.55;;;13.35;;
55065;SDS011;40964;42.114;24.220;2023-12-22T07:55:43;19.95;;;8.55;;
55065;SDS011;40964;42.114;24.220;2023-12-22T07:58:09;31.23;;;12.55;;
55065;SDS011;40964;42.114;24.220;2023-12-22T08:00:34;16.10;;;7.72;;
55065;SDS011;40964;42.114;24.220;2023-12-22T08:03:00;19.83;;;9.68;;
55065;SDS011;40964;42.114;24.220;2023-12-22T08:05:25;19.55;;;9.70;;
55065;SDS011;40964;42.114;24.220;2023-12-22T08:07:51;20.73;;;10.02;;
55065;SDS011;40964;42.114;24.220;2023-12-22T08:10:17;24.10;;;11.65;;
55065;SDS011;40964;42.114;24.220;2023-12-22T08:12:42;21.33;;;10.05;;
55065;SDS011;40964;42.114;24.220;2023-12-22T08:15:08;29.42;;;12.65;;
55065;SDS011;40964;42.114;24.220;2023-12-22T08:17:36;27.10;;;12.60;;
55065;SDS011;40964;42.114;24.220;2023-12-22T08:20:03;28.20;;;12.57;;
55065;SDS011;40964;42.114;24.220;2023-12-22T08:22:29;20.35;;;10.02;;
55065;SDS011;40964;42.114;24.220;2023-12-22T08:24:54;13.25;;;7.32;;
55065;SDS011;40964;42.114;24.220;2023-12-22T08:27:19;15.15;;;6.20;;
55065;SDS011;40964;42.114;24.220;2023-12-22T08:29:45;15.10;;;7.30;;
55065;SDS011;40964;42.114;24.220;2023-12-22T08:32:10;15.82;;;7.00;;
55065;SDS011;40964;42.114;24.220;2023-12-22T08:34:36;16.30;;;9.00;;
55065;SDS011;40964;42.114;24.220;2023-12-22T08:37:02;28.52;;;12.98;;
55065;SDS011;40964;42.114;24.220;2023-12-22T08:39:27;33.05;;;14.63;;
55065;SDS011;40964;42.114;24.220;2023-12-22T08:41:53;26.70;;;11.88;;
55065;SDS011;40964;42.114;24.220;2023-12-22T08:44:19;19.08;;;10.00;;
55065;SDS011;40964;42.114;24.220;2023-12-22T08:46:44;22.10;;;10.00;;
55065;SDS011;40964;42.114;24.220;2023-12-22T08:49:10;23.90;;;10.65;;
55065;SDS011;40964;42.114;24.220;2023-12-22T08:51:35;19.80;;;8.98;;
55065;SDS011;40964;42.114;24.220;2023-12-22T08:54:00;15.68;;;8.43;;
55065;SDS011;40964;42.114;24.220;2023-12-22T08:56:26;18.95;;;9.10;;
55065;SDS011;40964;42.114;24.220;2023-12-22T08:58:52;20.20;;;10.75;;
55065;SDS011;40964;42.114;24.220;2023-12-22T09:01:20;20.00;;;9.18;;
55065;SDS011;40964;42.114;24.220;2023-12-22T09:03:46;15.80;;;7.93;;
55065;SDS011;40964;42.114;24.220;2023-12-22T09:08:42;9.88;;;5.82;;
55065;SDS011;40964;42.114;24.220;2023-12-22T09:11:08;14.05;;;6.25;;
55065;SDS011;40964;42.114;24.220;2023-12-22T09:13:34;13.20;;;5.35;;
55065;SDS011;40964;42.114;24.220;2023-12-22T09:16:01;12.18;;;6.55;;
55065;SDS011;40964;42.114;24.220;2023-12-22T09:18:27;11.63;;;6.07;;
55065;SDS011;40964;42.114;24.220;2023-12-22T11:02:47;31.23;;;14.73;;
55065;SDS011;40964;42.114;24.220;2023-12-22T11:05:14;15.93;;;7.55;;
55065;SDS011;40964;42.114;24.220;2023-12-22T11:07:42;11.77;;;6.53;;
55065;SDS011;40964;42.114;24.220;2023-12-22T11:10:14;12.75;;;6.00;;
55065;SDS011;40964;42.114;24.220;2023-12-22T11:12:45;18.45;;;8.40;;
55065;SDS011;40964;42.114;24.220;2023-12-22T11:15:12;21.63;;;10.55;;
55065;SDS011;40964;42.114;24.220;2023-12-22T11:17:39;20.67;;;11.40;;
55065;SDS011;40964;42.114;24.220;2023-12-22T11:20:08;12.63;;;6.55;;
55065;SDS011;40964;42.114;24.220;2023-12-22T11:22:35;24.40;;;9.90;;
55065;SDS011;40964;42.114;24.220;2023-12-22T11:25:04;15.73;;;7.43;;
55065;SDS011;40964;42.114;24.220;2023-12-22T11:27:30;10.45;;;4.97;;
55065;SDS011;40964;42.114;24.220;2023-12-22T11:29:58;2.47;;;1.60;;
55065;SDS011;40964;42.114;24.220;2023-12-22T11:32:26;9.13;;;4.00;;
55065;SDS011;40964;42.114;24.220;2023-12-22T11:34:54;10.35;;;4.03;;
55065;SDS011;40964;42.114;24.220;2023-12-22T11:37:21;8.90;;;4.47;;
55065;SDS011;40964;42.114;24.220;2023-12-22T11:39:47;12.00;;;6.38;;
55065;SDS011;40964;42.114;24.220;2023-12-22T11:42:17;5.85;;;3.17;;
55065;SDS011;40964;42.114;24.220;2023-12-22T11:44:45;13.50;;;6.30;;
55065;SDS011;40964;42.114;24.220;2023-12-22T11:47:10;6.60;;;3.58;;
55065;SDS011;40964;42.114;24.220;2023-12-22T11:49:38;6.10;;;3.70;;
55065;SDS011;40964;42.114;24.220;2023-12-22T11:52:13;4.28;;;2.38;;
55065;SDS011;40964;42.114;24.220;2023-12-22T11:55:13;4.38;;;3.08;;
55065;SDS011;40964;42.114;24.220;2023-12-22T11:57:38;4.35;;;2.78;;
55065;SDS011;40964;42.114;24.220;2023-12-22T12:00:06;6.97;;;3.40;;
55065;SDS011;40964;42.114;24.220;2023-12-22T12:02:34;7.00;;;3.10;;
55065;SDS011;40964;42.114;24.220;2023-12-22T12:05:03;4.80;;;2.45;;
55065;SDS011;40964;42.114;24.220;2023-12-22T12:07:38;4.75;;;3.25;;
55065;SDS011;40964;42.114;24.220;2023-12-22T12:10:09;8.43;;;3.88;;
55065;SDS011;40964;42.114;24.220;2023-12-22T12:12:39;9.27;;;4.75;;
55065;SDS011;40964;42.114;24.220;2023-12-22T12:15:08;9.52;;;5.22;;
55065;SDS011;40964;42.114;24.220;2023-12-22T12:17:38;8.65;;;5.20;;
55065;SDS011;40964;42.114;24.220;2023-12-22T12:20:07;8.65;;;3.70;;
55065;SDS011;40964;42.114;24.220;2023-12-22T12:22:34;6.38;;;3.50;;
55065;SDS011;40964;42.114;24.220;2023-12-22T12:25:06;9.32;;;4.63;;
55065;SDS011;40964;42.114;24.220;2023-12-22T12:27:33;8.15;;;4.70;;
55065;SDS011;40964;42.114;24.220;2023-12-22T12:30:06;10.60;;;5.45;;
55065;SDS011;40964;42.114;24.220;2023-12-22T12:32:35;10.43;;;5.25;;
55065;SDS011;40964;42.114;24.220;2023-12-22T12:35:04;17.63;;;7.82;;
55065;SDS011;40964;42.114;24.220;2023-12-22T12:37:31;12.35;;;5.43;;
55065;SDS011;40964;42.114;24.220;2023-12-22T12:39:57;13.70;;;6.30;;
55065;SDS011;40964;42.114;24.220;2023-12-22T12:42:28;6.30;;;4.28;;
55065;SDS011;40964;42.114;24.220;2023-12-22T12:44:57;7.70;;;5.07;;
55065;SDS011;40964;42.114;24.220;2023-12-22T12:47:23;12.15;;;6.47;;
55065;SDS011;40964;42.114;24.220;2023-12-22T12:49:58;9.82;;;5.10;;
55065;SDS011;40964;42.114;24.220;2023-12-22T12:52:26;12.75;;;6.63;;
55065;SDS011;40964;42.114;24.220;2023-12-22T12:54:52;15.88;;;8.27;;
55065;SDS011;40964;42.114;24.220;2023-12-22T12:57:18;20.95;;;10.70;;
55065;SDS011;40964;42.114;24.220;2023-12-22T12:59:47;16.52;;;7.32;;
55065;SDS011;40964;42.114;24.220;2023-12-22T13:02:17;16.35;;;8.40;;
55065;SDS011;40964;42.114;24.220;2023-12-22T13:04:43;7.05;;;4.32;;
55065;SDS011;40964;42.114;24.220;2023-12-22T13:07:08;16.65;;;7.40;;
55065;SDS011;40964;42.114;24.220;2023-12-22T13:09:38;7.93;;;4.35;;
55065;SDS011;40964;42.114;24.220;2023-12-22T13:12:04;12.43;;;5.82;;
55065;SDS011;40964;42.114;24.220;2023-12-22T13:14:30;9.02;;;4.50;;
55065;SDS011;40964;42.114;24.220;2023-12-22T13:16:56;16.17;;;7.97;;
55065;SDS011;40964;42.114;24.220;2023-12-22T13:19:23;12.00;;;6.53;;
55065;SDS011;40964;42.114;24.220;2023-12-22T13:21:52;11.35;;;5.78;;
55065;SDS011;40964;42.114;24.220;2023-12-22T13:24:19;9.05;;;4.95;;
55065;SDS011;40964;42.114;24.220;2023-12-22T13:26:44;10.27;;;5.88;;
55065;SDS011;40964;42.114;24.220;2023-12-22T13:29:10;10.13;;;5.63;;
55065;SDS011;40964;42.114;24.220;2023-12-22T13:31:37;12.50;;;6.53;;
55065;SDS011;40964;42.114;24.220;2023-12-22T13:34:08;16.13;;;7.35;;
55065;SDS011;40964;42.114;24.220;2023-12-22T13:36:35;18.42;;;9.60;;
55065;SDS011;40964;42.114;24.220;2023-12-22T13:39:02;21.17;;;11.05;;
55065;SDS011;40964;42.114;24.220;2023-12-22T13:41:31;31.60;;;12.48;;
55065;SDS011;40964;42.114;24.220;2023-12-22T13:44:17;29.23;;;14.35;;
55065;SDS011;40964;42.114;24.220;2023-12-22T13:46:42;27.08;;;11.73;;
55065;SDS011;40964;42.114;24.220;2023-12-22T13:49:08;17.85;;;9.25;;
55065;SDS011;40964;42.114;24.220;2023-12-22T13:51:42;15.88;;;8.00;;
55065;SDS011;40964;42.114;24.220;2023-12-22T13:54:08;18.30;;;10.15;;
55065;SDS011;40964;42.114;24.220;2023-12-22T13:56:34;17.38;;;10.52;;
55065;SDS011;40964;42.114;24.220;2023-12-22T13:59:01;22.30;;;10.05;;
55065;SDS011;40964;42.114;24.220;2023-12-22T14:01:29;19.33;;;10.18;;
55065;SDS011;40964;42.114;24.220;2023-12-22T14:03:54;20.77;;;10.70;;
55065;SDS011;40964;42.114;24.220;2023-12-22T14:06:22;19.95;;;10.20;;
55065;SDS011;40964;42.114;24.220;2023-12-22T14:08:49;32.60;;;17.52;;
55065;SDS011;40964;42.114;24.220;2023-12-22T14:11:14;40.08;;;18.88;;
55065;SDS011;40964;42.114;24.220;2023-12-22T14:13:40;32.85;;;15.82;;
55065;SDS011;40964;42.114;24.220;2023-12-22T14:16:06;24.10;;;13.07;;
55065;SDS011;40964;42.114;24.220;2023-12-22T14:18:33;28.98;;;13.77;;
55065;SDS011;40964;42.114;24.220;2023-12-22T14:20:58;18.48;;;10.32;;
55065;SDS011;40964;42.114;24.220;2023-12-22T14:23:24;47.80;;;20.85;;
55065;SDS011;40964;42.114;24.220;2023-12-22T14:25:50;30.65;;;15.75;;
55065;SDS011;40964;42.114;24.220;2023-12-22T14:28:16;34.65;;;15.35;;
55065;SDS011;40964;42.114;24.220;2023-12-22T14:30:41;28.23;;;13.02;;
55065;SDS011;40964;42.114;24.220;2023-12-22T14:33:07;23.02;;;9.80;;
55065;SDS011;40964;42.114;24.220;2023-12-22T14:35:33;45.60;;;21.92;;
55065;SDS011;40964;42.114;24.220;2023-12-22T14:37:58;11.82;;;6.18;;
55065;SDS011;40964;42.114;24.220;2023-12-22T14:40:23;15.43;;;8.38;;
55065;SDS011;40964;42.114;24.220;2023-12-22T14:42:50;8.68;;;5.40;;
55065;SDS011;40964;42.114;24.220;2023-12-22T14:45:16;8.25;;;4.93;;
55065;SDS011;40964;42.114;24.220;2023-12-22T14:47:41;7.00;;;3.80;;
55065;SDS011;40964;42.114;24.220;2023-12-22T14:50:07;5.55;;;3.13;;
55065;SDS011;40964;42.114;24.220;2023-12-22T14:52:33;6.55;;;4.35;;
55065;SDS011;40964;42.114;24.220;2023-12-22T14:54:59;4.35;;;3.03;;
55065;SDS011;40964;42.114;24.220;2023-12-22T14:57:25;5.60;;;2.80;;
55065;SDS011;40964;42.114;24.220;2023-12-22T14:59:51;2.35;;;1.65;;
55065;SDS011;40964;42.114;24.220;2023-12-22T15:02:17;0.70;;;0.70;;
55065;SDS011;40964;42.114;24.220;2023-12-22T15:04:42;0.90;;;0.82;;
55065;SDS011;40964;42.114;24.220;2023-12-22T15:07:07;2.55;;;1.55;;
55065;SDS011;40964;42.114;24.220;2023-12-22T15:09:33;1.08;;;0.63;;
55065;SDS011;40964;42.114;24.220;2023-12-22T15:11:59;1.52;;;0.70;;
55065;SDS011;40964;42.114;24.220;2023-12-22T15:14:25;1.05;;;0.80;;
55065;SDS011;40964;42.114;24.220;2023-12-22T15:16:51;0.85;;;0.55;;
55065;SDS011;40964;42.114;24.220;2023-12-22T15:19:17;1.10;;;0.85;;
55065;SDS011;40964;42.114;24.220;2023-12-22T15:21:42;0.80;;;0.70;;
55065;SDS011;40964;42.114;24.220;2023-12-22T15:24:08;1.08;;;0.85;;
55065;SDS011;40964;42.114;24.220;2023-12-22T15:26:35;0.90;;;0.60;;
55065;SDS011;40964;42.114;24.220;2023-12-22T15:29:01;1.30;;;0.50;;
55065;SDS011;40964;42.114;24.220;2023-12-22T15:31:28;1.13;;;0.73;;
55065;SDS011;40964;42.114;24.220;2023-12-22T15:33:55;1.20;;;0.90;;
55065;SDS011;40964;42.114;24.220;2023-12-22T15:36:23;3.85;;;1.52;;
55065;SDS011;40964;42.114;24.220;2023-12-22T15:38:49;1.48;;;0.85;;
55065;SDS011;40964;42.114;24.220;2023-12-22T15:41:16;2.13;;;0.60;;
55065;SDS011;40964;42.114;24.220;2023-12-22T15:43:41;1.40;;;0.90;;
55065;SDS011;40964;42.114;24.220;2023-12-22T15:46:07;2.88;;;1.00;;
55065;SDS011;40964;42.114;24.220;2023-12-22T15:48:36;0.60;;;0.47;;
55065;SDS011;40964;42.114;24.220;2023-12-22T15:51:09;4.53;;;1.00;;
55065;SDS011;40964;42.114;24.220;2023-12-22T15:53:41;1.00;;;0.70;;
55065;SDS011;40964;42.114;24.220;2023-12-22T15:56:10;2.08;;;1.30;;
55065;SDS011;40964;42.114;24.220;2023-12-22T15:58:40;2.63;;;1.40;;
55065;SDS011;40964;42.114;24.220;2023-12-22T16:01:06;1.58;;;0.80;;
55065;SDS011;40964;42.114;24.220;2023-12-22T16:03:32;0.95;;;0.88;;
55065;SDS011;40964;42.114;24.220;2023-12-22T16:06:01;0.82;;;0.70;;
55065;SDS011;40964;42.114;24.220;2023-12-22T16:08:28;1.20;;;0.60;;
55065;SDS011;40964;42.114;24.220;2023-12-22T16:10:53;0.77;;;0.77;;